Time;durP1;ratioP1;P1;durP2;ratioP2;P2;SDS_P1;SDS_P2;PMS_P1;PMS_P2;Temp;Humidity;BMP_temperature;BMP_pressure;BME280_temperature;BME280_humidity;BME280_pressure;Samples;Min_cycle;Max_cycle;Signal;HPM_P1;HPM_P2
2023/03/08 00:01:00;;;;;;;12.60;5.18;;;-1.30;91.50;;;;;;6159955;23;20001;-89
2023/03/08 00:03:26;;;;;;;12.88;5.07;;;-1.30;91.60;;;;;;6185816;23;20005;-87
2023/03/08 00:05:52;;;;;;;10.93;4.13;;;-1.40;91.80;;;;;;6159841;23;20409;-88
2023/03/08 00:08:18;;;;;;;12.60;4.47;;;-1.40;92.00;;;;;;6186106;23;20043;-88
2023/03/08 00:10:44;;;;;;;9.88;3.92;;;-1.40;92.20;;;;;;6186126;23;20072;-88
2023/03/08 00:13:10;;;;;;;12.77;4.38;;;-1.50;92.30;;;;;;6159273;23;20041;-88
2023/03/08 00:15:37;;;;;;;13.07;4.32;;;-1.40;92.60;;;;;;6160212;23;20059;-89
2023/03/08 00:18:04;;;;;;;8.63;4.90;;;-1.40;92.70;;;;;;6159019;23;20001;-86
2023/03/08 00:20:29;;;;;;;7.35;3.60;;;-1.50;92.80;;;;;;6158921;23;20028;-86
2023/03/08 00:22:55;;;;;;;11.00;3.72;;;-1.50;92.90;;;;;;6186481;23;20429;-88
2023/03/08 00:25:20;;;;;;;13.15;4.60;;;-1.60;93.00;;;;;;6185621;23;19997;-88
2023/03/08 00:27:46;;;;;;;11.02;4.07;;;-1.60;93.40;;;;;;6186628;23;20028;-89
2023/03/08 00:30:13;;;;;;;11.82;5.38;;;-1.60;93.50;;;;;;6159861;23;20005;-90
2023/03/08 00:32:38;;;;;;;12.10;4.13;;;-1.70;93.70;;;;;;6184706;23;20463;-87
2023/03/08 00:35:04;;;;;;;6.95;3.53;;;-1.70;93.90;;;;;;6158862;23;20013;-88
2023/03/08 00:37:31;;;;;;;11.52;3.90;;;-1.70;94.10;;;;;;6159430;23;20009;-89
2023/03/08 00:39:56;;;;;;;11.90;3.85;;;-1.70;94.20;;;;;;6187417;23;20012;-89
2023/03/08 00:42:22;;;;;;;7.72;3.92;;;-1.70;94.50;;;;;;6186753;23;20072;-89
2023/03/08 00:44:48;;;;;;;12.05;3.97;;;-1.80;94.80;;;;;;6186640;23;20001;-88
2023/03/08 00:47:15;;;;;;;6.93;3.22;;;-1.70;95.00;;;;;;6160167;23;20020;-88
2023/03/08 00:49:40;;;;;;;8.07;3.78;;;-1.70;95.20;;;;;;6187075;23;20651;-89
2023/03/08 00:52:06;;;;;;;11.15;3.92;;;-1.80;95.40;;;;;;6160444;23;20047;-89
2023/03/08 00:54:32;;;;;;;9.63;3.83;;;-1.70;95.60;;;;;;6160042;23;20337;-88
2023/03/08 00:56:57;;;;;;;9.15;3.65;;;-1.80;95.80;;;;;;6160063;23;20012;-89
2023/03/08 00:59:23;;;;;;;8.48;3.25;;;-1.80;96.00;;;;;;6160407;23;20005;-88
2023/03/08 01:01:49;;;;;;;11.80;3.80;;;-1.80;96.20;;;;;;6186833;23;20112;-87
2023/03/08 01:04:15;;;;;;;9.52;4.32;;;-1.80;96.40;;;;;;6160327;23;20005;-89
2023/03/08 01:06:44;;;;;;;7.18;3.15;;;-1.90;96.50;;;;;;6186919;23;20039;-89
2023/03/08 01:09:11;;;;;;;8.65;3.42;;;-1.90;96.90;;;;;;6187188;23;20008;-89
2023/03/08 01:11:37;;;;;;;7.63;3.67;;;-1.90;97.40;;;;;;6161675;23;20001;-89
2023/03/08 01:14:05;;;;;;;12.70;3.40;;;-1.80;97.70;;;;;;6186724;23;20460;-89
2023/03/08 01:16:32;;;;;;;8.07;3.17;;;-1.80;98.00;;;;;;6160487;23;20003;-89
2023/03/08 01:18:59;;;;;;;7.85;3.33;;;-1.80;98.10;;;;;;6160177;23;20008;-89
2023/03/08 01:21:25;;;;;;;9.70;2.97;;;-1.80;98.40;;;;;;6160755;23;20433;-88
2023/03/08 01:23:52;;;;;;;5.38;2.72;;;-1.80;98.70;;;;;;6187244;23;20012;-89
2023/03/08 01:26:27;;;;;;;11.30;3.05;;;-1.80;99.00;;;;;;6160881;23;20444;-89
2023/03/08 01:28:52;;;;;;;8.38;2.70;;;-1.70;99.30;;;;;;6160008;23;20001;-89
2023/03/08 01:31:23;;;;;;;7.43;2.95;;;-1.70;99.50;;;;;;6186576;23;20008;-88
2023/03/08 01:33:49;;;;;;;9.00;3.17;;;-1.70;99.80;;;;;;6160670;23;20052;-90
2023/03/08 01:36:18;;;;;;;10.88;3.33;;;-1.70;99.90;;;;;;6186769;23;20013;-89
2023/03/08 01:38:45;;;;;;;7.03;2.90;;;-1.70;99.90;;;;;;6162361;23;20008;-88
2023/03/08 01:41:21;;;;;;;8.02;2.90;;;-1.70;99.90;;;;;;6162800;23;20040;-89
2023/03/08 01:43:48;;;;;;;6.82;2.90;;;-1.80;99.90;;;;;;6168303;23;20005;-90
2023/03/08 01:46:13;;;;;;;5.88;2.72;;;-1.80;99.90;;;;;;6171507;23;20005;-89
2023/03/08 01:48:44;;;;;;;7.90;2.80;;;-1.80;99.90;;;;;;6174377;23;20096;-89
2023/03/08 01:51:14;;;;;;;6.13;2.85;;;-1.80;99.90;;;;;;6171335;23;20377;-89
2023/03/08 01:53:41;;;;;;;7.93;3.33;;;-1.90;99.90;;;;;;6184870;23;20065;-87
2023/03/08 01:56:10;;;;;;;4.78;2.50;;;-1.90;99.90;;;;;;6186586;23;19993;-89
2023/03/08 01:58:38;;;;;;;3.75;2.28;;;-2.00;99.90;;;;;;6199437;23;20007;-88
2023/03/08 02:01:04;;;;;;;8.48;2.95;;;-2.00;99.90;;;;;;6164685;23;20009;-89
2023/03/08 02:03:29;;;;;;;4.68;2.30;;;-2.00;99.90;;;;;;6162581;23;20020;-86
2023/03/08 02:05:56;;;;;;;7.90;2.97;;;-2.00;99.90;;;;;;6162281;23;20095;-88
2023/03/08 02:08:22;;;;;;;7.65;3.55;;;-2.00;99.90;;;;;;6161037;23;20007;-89
2023/03/08 02:10:49;;;;;;;9.43;2.90;;;-2.10;99.90;;;;;;6187247;23;20021;-90
2023/03/08 02:13:17;;;;;;;6.35;2.97;;;-2.10;99.90;;;;;;6186576;23;20005;-89
2023/03/08 02:15:43;;;;;;;7.07;2.90;;;-2.10;99.90;;;;;;6161625;23;20478;-90
2023/03/08 02:18:09;;;;;;;8.02;3.53;;;-2.10;99.90;;;;;;6160780;23;20010;-89
2023/03/08 02:20:37;;;;;;;12.05;3.60;;;-2.10;99.90;;;;;;6160660;23;20015;-89
2023/03/08 02:23:15;;;;;;;9.55;3.22;;;-2.10;99.90;;;;;;6160423;23;20072;-87
2023/03/08 02:25:54;;;;;;;5.97;2.80;;;-2.10;99.90;;;;;;6160772;23;20071;-90
2023/03/08 02:28:23;;;;;;;6.93;2.53;;;-2.10;99.90;;;;;;6160624;23;20029;-90
2023/03/08 02:30:49;;;;;;;7.68;3.22;;;-2.10;99.90;;;;;;6161483;23;20009;-88
2023/03/08 02:33:16;;;;;;;4.70;2.30;;;-2.10;99.90;;;;;;6160882;23;20024;-89
2023/03/08 02:35:43;;;;;;;5.85;2.35;;;-2.00;99.90;;;;;;6161093;23;20053;-89
2023/03/08 02:38:10;;;;;;;6.97;2.10;;;-2.00;99.90;;;;;;6161530;23;20142;-89
2023/03/08 02:40:37;;;;;;;8.07;2.35;;;-2.00;99.90;;;;;;6162379;23;20021;-90
2023/03/08 02:43:03;;;;;;;4.18;1.70;;;-1.90;99.90;;;;;;6137923;23;20439;-90
2023/03/08 02:45:29;;;;;;;2.97;1.83;;;-1.90;99.90;;;;;;6163313;23;20023;-90
2023/03/08 02:47:54;;;;;;;4.53;1.88;;;-1.80;99.90;;;;;;6166464;23;20091;-90
2023/03/08 02:50:20;;;;;;;5.13;2.08;;;-1.80;99.90;;;;;;6164970;23;20005;-89
2023/03/08 02:52:46;;;;;;;3.22;1.65;;;-1.80;99.90;;;;;;6161903;23;20013;-90
2023/03/08 02:55:11;;;;;;;5.43;2.60;;;-1.80;99.90;;;;;;6161728;23;20008;-89
2023/03/08 02:57:37;;;;;;;4.70;2.22;;;-1.90;99.90;;;;;;6160820;23;20001;-90
2023/03/08 03:00:03;;;;;;;5.95;2.35;;;-1.90;99.90;;;;;;6161444;23;20005;-90
2023/03/08 03:02:31;;;;;;;8.00;2.53;;;-1.90;99.90;;;;;;6161151;23;20059;-89
2023/03/08 03:04:57;;;;;;;7.75;3.08;;;-2.00;99.90;;;;;;6187580;23;20001;-90
2023/03/08 03:07:23;;;;;;;7.88;2.70;;;-2.00;99.90;;;;;;6161828;23;20036;-90
2023/03/08 03:09:48;;;;;;;7.72;2.60;;;-2.10;99.90;;;;;;6161940;23;20497;-90
2023/03/08 03:12:14;;;;;;;6.05;2.60;;;-2.10;99.90;;;;;;6161012;23;20005;-89
2023/03/08 03:14:39;;;;;;;4.30;2.25;;;-2.10;99.90;;;;;;6197906;23;20314;-90
2023/03/08 03:17:05;;;;;;;7.53;2.10;;;-2.10;99.90;;;;;;6197827;23;20005;-90
2023/03/08 03:19:31;;;;;;;5.70;2.22;;;-2.10;99.90;;;;;;6188564;23;20088;-90
2023/03/08 03:21:56;;;;;;;3.72;1.77;;;-2.10;99.90;;;;;;6187373;23;20081;-89
2023/03/08 03:24:22;;;;;;;4.55;2.10;;;-2.10;99.90;;;;;;6161422;23;20002;-90
2023/03/08 03:26:50;;;;;;;5.90;2.53;;;-2.10;99.90;;;;;;6161647;23;20079;-90
2023/03/08 03:29:16;;;;;;;5.55;2.15;;;-2.10;99.90;;;;;;6160958;23;20005;-89
2023/03/08 03:31:41;;;;;;;5.57;2.25;;;-2.00;99.90;;;;;;6161745;23;20384;-90
2023/03/08 03:34:08;;;;;;;6.65;2.00;;;-2.00;99.90;;;;;;6161019;23;20452;-90
2023/03/08 03:36:34;;;;;;;7.65;2.42;;;-2.00;99.90;;;;;;6155597;23;20037;-89
2023/03/08 03:38:59;;;;;;;7.07;2.20;;;-2.00;99.90;;;;;;6155423;23;20071;-90
2023/03/08 03:41:25;;;;;;;5.22;1.92;;;-1.90;99.90;;;;;;6155509;23;20001;-90
2023/03/08 03:43:51;;;;;;;4.97;2.17;;;-1.90;99.90;;;;;;6155876;23;20033;-90
2023/03/08 03:46:19;;;;;;;7.20;2.50;;;-1.90;99.90;;;;;;6156010;23;20030;-90
2023/03/08 03:48:45;;;;;;;5.03;1.80;;;-1.90;99.90;;;;;;6155398;23;20083;-90
2023/03/08 03:51:13;;;;;;;5.03;1.80;;;-1.90;99.90;;;;;;6155502;23;20651;-90
2023/03/08 03:53:40;;;;;;;3.97;1.48;;;-1.90;99.90;;;;;;6157008;23;20378;-89
2023/03/08 03:56:17;;;;;;;4.90;1.90;;;-1.90;99.90;;;;;;6155033;23;20345;-90
2023/03/08 03:58:44;;;;;;;5.30;1.50;;;-1.90;99.90;;;;;;6155317;23;20013;-89
2023/03/08 04:01:16;;;;;;;4.22;1.70;;;-1.90;99.90;;;;;;6130263;23;20100;-89
2023/03/08 04:03:42;;;;;;;6.10;1.70;;;-1.80;99.90;;;;;;6155131;23;20008;-89
2023/03/08 04:06:10;;;;;;;3.20;1.25;;;-1.80;99.90;;;;;;6154817;23;19998;-89
2023/03/08 04:08:41;;;;;;;4.07;1.65;;;-1.80;99.90;;;;;;6154943;23;20434;-89
2023/03/08 04:11:11;;;;;;;1.92;1.40;;;-1.80;99.90;;;;;;6155346;23;20006;-89
2023/03/08 04:13:37;;;;;;;2.17;1.23;;;-1.80;99.90;;;;;;6154237;23;20037;-89
2023/03/08 04:16:21;;;;;;;3.63;1.60;;;-1.80;99.90;;;;;;6156624;23;20056;-90
2023/03/08 04:18:47;;;;;;;6.25;1.80;;;-1.70;99.90;;;;;;6154626;23;20005;-89
2023/03/08 04:21:13;;;;;;;3.10;1.70;;;-1.70;99.90;;;;;;6154556;23;20080;-89
2023/03/08 04:23:39;;;;;;;4.45;1.73;;;-1.60;99.90;;;;;;6155002;23;20024;-88
2023/03/08 04:26:06;;;;;;;2.38;1.52;;;-1.60;99.90;;;;;;6155190;23;20089;-89
2023/03/08 04:28:35;;;;;;;3.47;1.63;;;-1.60;99.90;;;;;;6154775;23;20433;-90
2023/03/08 04:31:11;;;;;;;4.70;1.60;;;-1.60;99.90;;;;;;6154996;23;20360;-87
2023/03/08 04:33:36;;;;;;;7.85;2.17;;;-1.60;99.90;;;;;;6154464;23;20014;-88
2023/03/08 04:36:02;;;;;;;7.20;2.00;;;-1.70;99.90;;;;;;6154473;23;20024;-88
2023/03/08 04:38:28;;;;;;;2.90;1.50;;;-1.70;99.90;;;;;;6154971;23;20013;-88
2023/03/08 04:41:05;;;;;;;3.80;2.00;;;-1.70;99.90;;;;;;6159155;23;20006;-88
2023/03/08 04:43:33;;;;;;;6.75;2.40;;;-1.70;99.90;;;;;;6160851;23;20009;-88
2023/03/08 04:46:01;;;;;;;4.82;1.88;;;-1.70;99.90;;;;;;6154734;23;20002;-89
2023/03/08 04:48:28;;;;;;;4.85;1.75;;;-1.70;99.90;;;;;;6155101;23;20019;-88
2023/03/08 04:51:02;;;;;;;4.63;1.85;;;-1.80;99.90;;;;;;6154978;23;20060;-89
2023/03/08 04:53:29;;;;;;;5.63;2.47;;;-1.80;99.90;;;;;;6154641;23;20326;-89
2023/03/08 04:55:55;;;;;;;7.10;2.63;;;-1.80;99.90;;;;;;6154346;23;20320;-89
2023/03/08 04:58:21;;;;;;;4.50;1.73;;;-1.80;99.90;;;;;;6154571;23;20098;-88
2023/03/08 05:00:46;;;;;;;6.57;2.08;;;-1.80;99.90;;;;;;6156592;23;20033;-88
2023/03/08 05:03:13;;;;;;;5.78;1.83;;;-1.80;99.90;;;;;;6154147;23;19998;-90
2023/03/08 05:05:50;;;;;;;5.35;2.50;;;-1.70;99.90;;;;;;6154195;23;20014;-89
2023/03/08 05:08:17;;;;;;;4.97;2.30;;;-1.70;99.90;;;;;;6154318;23;20005;-88
2023/03/08 05:10:52;;;;;;;6.50;2.22;;;-1.70;99.90;;;;;;6153687;23;20009;-89
2023/03/08 05:13:18;;;;;;;5.30;2.20;;;-1.70;99.90;;;;;;6153131;23;20080;-89
2023/03/08 05:15:44;;;;;;;5.68;2.15;;;-1.70;99.90;;;;;;6153310;23;20009;-88
2023/03/08 05:18:09;;;;;;;3.97;2.53;;;-1.60;99.90;;;;;;6153439;23;20151;-89
2023/03/08 05:20:35;;;;;;;3.80;2.20;;;-1.60;99.90;;;;;;6152916;23;20010;-90
2023/03/08 05:23:01;;;;;;;6.75;2.80;;;-1.60;99.90;;;;;;6151843;23;20052;-90
2023/03/08 05:25:26;;;;;;;5.10;1.92;;;-1.50;99.90;;;;;;6155604;23;20011;-88
2023/03/08 05:27:52;;;;;;;6.05;2.30;;;-1.50;99.90;;;;;;6156379;23;20393;-90
2023/03/08 05:30:18;;;;;;;6.35;4.03;;;-1.50;99.90;;;;;;6156398;23;20009;-90
2023/03/08 05:32:44;;;;;;;6.75;2.72;;;-1.50;99.90;;;;;;6156325;23;20334;-89
2023/03/08 05:35:09;;;;;;;8.68;2.97;;;-1.50;99.90;;;;;;6155138;23;20009;-90
2023/03/08 05:37:35;;;;;;;7.13;3.35;;;-1.50;99.90;;;;;;6155702;23;20385;-89
2023/03/08 05:40:01;;;;;;;6.95;3.05;;;-1.50;99.90;;;;;;6157155;23;20043;-90
2023/03/08 05:42:29;;;;;;;3.53;2.05;;;-1.40;99.90;;;;;;6158030;23;20631;-90
2023/03/08 05:44:55;;;;;;;6.78;3.20;;;-1.40;99.90;;;;;;6155596;23;20403;-90
2023/03/08 05:47:20;;;;;;;3.55;2.17;;;-1.40;99.90;;;;;;6155602;23;20025;-91
2023/03/08 05:49:46;;;;;;;5.80;2.22;;;-1.40;99.90;;;;;;6160373;23;20005;-90
2023/03/08 05:52:12;;;;;;;5.05;3.30;;;-1.40;99.90;;;;;;6170685;23;20029;-90
2023/03/08 05:54:38;;;;;;;6.60;3.58;;;-1.30;99.90;;;;;;6179456;23;20022;-90
2023/03/08 05:57:04;;;;;;;7.45;3.97;;;-1.30;99.90;;;;;;6176439;23;20001;-90
2023/03/08 05:59:30;;;;;;;8.82;4.43;;;-1.30;99.90;;;;;;6179358;23;20005;-90
2023/03/08 06:01:56;;;;;;;6.97;2.63;;;-1.30;99.90;;;;;;6181806;23;20013;-91
2023/03/08 06:04:21;;;;;;;9.88;3.47;;;-1.20;99.90;;;;;;6183532;23;19997;-90
2023/03/08 06:06:47;;;;;;;9.98;3.90;;;-1.30;99.90;;;;;;6181849;23;20010;-91
2023/03/08 06:09:13;;;;;;;7.93;3.10;;;-1.30;99.90;;;;;;6174206;23;20057;-89
2023/03/08 06:11:38;;;;;;;7.28;3.58;;;-1.30;99.90;;;;;;6173332;23;20040;-90
2023/03/08 06:14:04;;;;;;;10.40;3.17;;;-1.30;99.90;;;;;;6158712;23;20020;-90
2023/03/08 06:16:29;;;;;;;6.53;3.25;;;-1.30;99.90;;;;;;6157117;23;20014;-89
2023/03/08 06:18:55;;;;;;;6.10;3.28;;;-1.20;99.90;;;;;;6158075;23;20077;-90
2023/03/08 06:21:21;;;;;;;10.65;3.85;;;-1.30;99.90;;;;;;6156835;23;20005;-90
2023/03/08 06:23:47;;;;;;;6.45;3.65;;;-1.20;99.90;;;;;;6157496;23;20048;-90
2023/03/08 06:26:14;;;;;;;8.80;4.50;;;-1.30;99.90;;;;;;6156499;23;20009;-89
2023/03/08 06:28:40;;;;;;;7.72;3.92;;;-1.20;99.90;;;;;;6155758;23;20012;-89
2023/03/08 06:31:07;;;;;;;10.85;4.05;;;-1.20;99.90;;;;;;6156422;23;20025;-89
2023/03/08 06:33:33;;;;;;;10.98;5.40;;;-1.20;99.90;;;;;;6155929;23;20100;-89
2023/03/08 06:36:05;;;;;;;9.70;5.00;;;-1.20;99.90;;;;;;6155233;23;20020;-90
2023/03/08 06:38:32;;;;;;;9.77;4.93;;;-1.20;99.90;;;;;;6156083;23;20013;-89
2023/03/08 06:40:58;;;;;;;5.20;3.45;;;-1.20;99.90;;;;;;6155884;23;20002;-89
2023/03/08 06:43:25;;;;;;;11.57;5.40;;;-1.20;99.90;;;;;;6156177;23;20144;-90
2023/03/08 06:45:51;;;;;;;8.10;3.65;;;-1.20;99.90;;;;;;6155434;23;20006;-90
2023/03/08 06:48:17;;;;;;;10.40;5.10;;;-1.20;99.90;;;;;;6156426;23;20425;-90
2023/03/08 06:50:43;;;;;;;13.50;5.55;;;-1.20;99.90;;;;;;6156527;23;20529;-90
2023/03/08 06:53:10;;;;;;;16.55;5.82;;;-1.20;99.90;;;;;;6156938;23;20013;-90
2023/03/08 06:55:36;;;;;;;15.13;6.28;;;-1.20;99.90;;;;;;6157529;23;20021;-89
2023/03/08 06:58:02;;;;;;;12.75;6.25;;;-1.10;99.90;;;;;;6161544;23;20341;-90
2023/03/08 07:00:28;;;;;;;11.93;7.03;;;-1.10;99.90;;;;;;6168779;23;20006;-90
2023/03/08 07:02:54;;;;;;;18.58;6.97;;;-1.10;99.90;;;;;;6170161;23;20012;-89
2023/03/08 07:05:20;;;;;;;13.55;6.07;;;-1.10;99.90;;;;;;6167484;23;20005;-91
2023/03/08 07:07:46;;;;;;;17.80;7.10;;;-1.10;99.90;;;;;;6163944;23;20020;-91
2023/03/08 07:10:14;;;;;;;18.02;6.30;;;-1.10;99.90;;;;;;6163806;23;20006;-91
2023/03/08 07:12:47;;;;;;;13.88;6.93;;;-1.00;99.90;;;;;;6160081;23;20064;-89
2023/03/08 07:15:14;;;;;;;17.08;7.10;;;-1.10;99.90;;;;;;6135776;23;20373;-90
2023/03/08 07:17:47;;;;;;;16.20;7.75;;;-1.10;99.90;;;;;;6158890;23;20361;-88
2023/03/08 07:20:16;;;;;;;17.88;7.57;;;-1.00;99.90;;;;;;6157946;23;20009;-91
2023/03/08 07:22:43;;;;;;;16.15;7.72;;;-1.00;99.90;;;;;;6158111;23;20037;-91
2023/03/08 07:25:11;;;;;;;13.30;6.65;;;-0.90;99.90;;;;;;6157911;23;20013;-91
2023/03/08 07:27:38;;;;;;;20.45;8.07;;;-0.90;99.90;;;;;;6158095;23;20006;-91
2023/03/08 07:30:08;;;;;;;16.90;7.25;;;-0.90;99.90;;;;;;6156991;23;20016;-91
2023/03/08 07:32:34;;;;;;;13.73;7.72;;;-0.80;99.90;;;;;;6157178;23;20100;-90
2023/03/08 07:35:00;;;;;;;14.27;6.75;;;-0.80;99.90;;;;;;6167527;23;20002;-91
2023/03/08 07:37:26;;;;;;;13.45;6.50;;;-0.70;99.90;;;;;;6167226;23;20005;-92
2023/03/08 07:39:54;;;;;;;11.65;6.07;;;-0.70;99.90;;;;;;6161977;23;20035;-92
2023/03/08 07:42:19;;;;;;;20.10;8.50;;;-0.60;99.90;;;;;;6161932;23;20016;-90
2023/03/08 07:44:45;;;;;;;12.93;7.13;;;-0.60;99.90;;;;;;6161378;23;20036;-90
2023/03/08 07:47:11;;;;;;;14.15;7.57;;;-0.60;99.90;;;;;;6159491;23;20364;-90
2023/03/08 07:49:36;;;;;;;16.48;7.88;;;-0.50;99.90;;;;;;6160535;23;20044;-90
2023/03/08 07:52:02;;;;;;;14.65;6.75;;;-0.50;99.90;;;;;;6161153;23;20001;-91
2023/03/08 07:54:28;;;;;;;14.13;7.43;;;-0.50;99.90;;;;;;6187445;23;20009;-91
2023/03/08 07:56:54;;;;;;;13.00;7.28;;;-0.50;99.90;;;;;;6163247;23;20020;-92
2023/03/08 07:59:21;;;;;;;21.25;7.50;;;-0.50;99.90;;;;;;6161529;23;20063;-91
2023/03/08 08:01:47;;;;;;;17.77;8.15;;;-0.50;99.90;;;;;;6188239;23;20004;-91
2023/03/08 08:04:13;;;;;;;18.85;6.13;;;-0.50;99.90;;;;;;6186825;23;20507;-91
2023/03/08 08:06:39;;;;;;;15.73;6.43;;;-0.40;99.90;;;;;;6159769;23;20005;-90
2023/03/08 08:09:06;;;;;;;12.02;6.65;;;-0.40;99.90;;;;;;6186648;23;20005;-90
2023/03/08 08:11:33;;;;;;;15.65;8.05;;;-0.40;99.90;;;;;;6160038;23;20028;-91
2023/03/08 08:14:02;;;;;;;16.13;6.57;;;-0.30;99.90;;;;;;6159986;23;20012;-90
2023/03/08 08:16:28;;;;;;;12.85;7.60;;;-0.30;99.90;;;;;;6163130;23;20025;-93
2023/03/08 08:18:54;;;;;;;11.68;6.68;;;-0.30;99.90;;;;;;6161479;23;20015;-93
2023/03/08 08:21:20;;;;;;;14.05;7.00;;;-0.20;99.90;;;;;;6160249;23;20016;-93
2023/03/08 08:23:46;;;;;;;15.05;6.88;;;-0.10;99.90;;;;;;6160413;23;20017;-92
2023/03/08 08:26:19;;;;;;;15.98;7.82;;;0.00;99.90;;;;;;6160386;23;20039;-92
2023/03/08 08:28:51;;;;;;;16.05;8.43;;;0.00;99.90;;;;;;6160206;23;20036;-91
2023/03/08 08:31:22;;;;;;;13.98;7.57;;;0.10;99.90;;;;;;6160749;23;20004;-92
2023/03/08 08:33:48;;;;;;;20.13;8.85;;;0.20;99.90;;;;;;6161843;23;20071;-93
2023/03/08 08:36:17;;;;;;;23.35;9.48;;;0.30;99.90;;;;;;6159448;23;20013;-94
2023/03/08 08:38:44;;;;;;;19.05;7.45;;;0.40;99.90;;;;;;6159108;23;20009;-93
2023/03/08 08:41:11;;;;;;;17.88;8.57;;;0.40;99.90;;;;;;6158800;23;20059;-93
2023/03/08 08:43:37;;;;;;;16.60;8.73;;;0.50;99.90;;;;;;6183791;23;20337;-91
2023/03/08 08:46:04;;;;;;;26.17;11.55;;;0.50;99.90;;;;;;6187428;23;20001;-94
2023/03/08 08:48:31;;;;;;;20.60;9.85;;;0.50;99.90;;;;;;6160656;23;20096;-94
2023/03/08 08:50:58;;;;;;;19.60;9.93;;;0.60;99.90;;;;;;6161771;23;20005;-94
2023/03/08 08:53:24;;;;;;;19.30;10.48;;;0.60;99.90;;;;;;6192021;23;20425;-94
2023/03/08 08:55:51;;;;;;;19.10;9.80;;;0.60;99.90;;;;;;6193160;23;20340;-94
2023/03/08 08:58:17;;;;;;;19.33;8.77;;;0.70;99.90;;;;;;6165748;23;20012;-94
2023/03/08 09:00:43;;;;;;;23.10;10.05;;;0.70;99.90;;;;;;6168902;23;20005;-96
2023/03/08 09:03:10;;;;;;;19.85;8.65;;;0.90;99.90;;;;;;6171279;23;20012;-95
2023/03/08 09:05:39;;;;;;;18.60;9.90;;;0.90;99.90;;;;;;6172017;23;20095;-94
2023/03/08 09:08:05;;;;;;;17.45;8.57;;;0.90;99.90;;;;;;6166457;23;20033;-95
2023/03/08 09:10:34;;;;;;;17.80;9.27;;;1.00;99.90;;;;;;6168618;23;20005;-96
2023/03/08 09:12:59;;;;;;;17.67;9.20;;;1.00;99.90;;;;;;6169540;23;20064;-94
2023/03/08 09:15:26;;;;;;;19.15;9.38;;;1.00;99.90;;;;;;6171298;23;20032;-92
2023/03/08 09:17:54;;;;;;;16.30;8.93;;;1.10;99.90;;;;;;6169640;23;20001;-94
2023/03/08 09:20:20;;;;;;;19.50;9.02;;;1.20;99.90;;;;;;6175390;23;20008;-96
2023/03/08 09:22:46;;;;;;;19.92;9.65;;;1.20;99.90;;;;;;6205041;23;20083;-95
2023/03/08 09:25:14;;;;;;;17.88;7.43;;;1.20;99.90;;;;;;6201468;23;20001;-95
2023/03/08 09:27:41;;;;;;;20.33;7.65;;;1.30;99.90;;;;;;6172491;23;20043;-96
2023/03/08 09:30:12;;;;;;;14.50;7.65;;;1.30;99.90;;;;;;6173443;23;20012;-96
2023/03/08 09:32:38;;;;;;;14.48;7.15;;;1.40;99.90;;;;;;6174484;23;20009;-96
2023/03/08 09:35:04;;;;;;;13.40;7.10;;;1.40;99.90;;;;;;6203072;23;20023;-94
2023/03/08 09:37:30;;;;;;;13.15;6.70;;;1.50;99.90;;;;;;6150612;23;20009;-89
2023/03/08 09:39:56;;;;;;;16.30;6.95;;;1.50;99.90;;;;;;6196515;23;19993;-92
2023/03/08 09:42:29;;;;;;;14.73;7.43;;;1.60;99.90;;;;;;6162568;23;20060;-92
2023/03/08 09:45:32;;;;;;;14.75;6.95;;;1.70;99.90;;;;;;6162365;23;20009;-91
2023/03/08 09:48:09;;;;;;;13.88;6.90;;;1.70;99.90;;;;;;6162066;23;20002;-95
2023/03/08 09:50:47;;;;;;;14.70;6.68;;;1.70;99.90;;;;;;6162245;23;20013;-92
2023/03/08 09:53:41;;;;;;;16.80;7.13;;;1.80;99.90;;;;;;6161731;23;20005;-93
2023/03/08 09:56:27;;;;;;;12.60;6.75;;;1.90;99.90;;;;;;6161644;23;20020;-91
2023/03/08 09:59:12;;;;;;;15.20;7.22;;;2.00;99.90;;;;;;6161752;23;20093;-93
2023/03/08 10:01:59;;;;;;;12.73;6.38;;;2.10;99.90;;;;;;6159668;23;20068;-94
2023/03/08 10:04:48;;;;;;;15.27;6.13;;;2.20;99.90;;;;;;6160648;23;19997;-93
2023/03/08 10:07:32;;;;;;;15.07;8.00;;;2.30;99.90;;;;;;6160968;23;20013;-94
2023/03/08 10:10:32;;;;;;;15.27;7.18;;;2.30;99.90;;;;;;6161098;23;20008;-93
2023/03/08 10:13:19;;;;;;;12.27;6.83;;;2.40;99.90;;;;;;6160649;23;19998;-94
2023/03/08 10:15:54;;;;;;;12.10;6.60;;;2.60;99.90;;;;;;6161250;23;20257;-93
2023/03/08 10:18:26;;;;;;;11.73;6.57;;;2.70;99.90;;;;;;6162138;23;20061;-93
2023/03/08 10:20:52;;;;;;;13.15;6.55;;;2.80;99.90;;;;;;6161772;23;20013;-93
2023/03/08 10:23:20;;;;;;;13.05;6.20;;;3.00;99.90;;;;;;6161380;23;20033;-92
2023/03/08 10:25:47;;;;;;;13.23;5.97;;;3.20;99.90;;;;;;6161972;23;20429;-91
2023/03/08 10:28:19;;;;;;;11.98;6.30;;;3.30;99.90;;;;;;6162197;23;20059;-91
2023/03/08 10:30:51;;;;;;;10.52;5.88;;;3.40;99.90;;;;;;6163694;23;20055;-91
2023/03/08 10:33:20;;;;;;;13.60;5.88;;;3.60;99.90;;;;;;6162291;23;20020;-91
2023/03/08 10:35:58;;;;;;;11.98;5.88;;;3.80;99.90;;;;;;6161781;23;20063;-91
2023/03/08 10:38:31;;;;;;;13.82;6.80;;;4.00;99.90;;;;;;6161991;23;20047;-93
2023/03/08 10:41:15;;;;;;;12.88;6.13;;;4.10;99.90;;;;;;6161649;23;20005;-92
2023/03/08 10:43:46;;;;;;;14.43;6.65;;;4.30;99.90;;;;;;6161852;23;20005;-91
2023/03/08 10:46:20;;;;;;;11.95;6.32;;;4.40;99.80;;;;;;6161506;23;20448;-91
2023/03/08 10:48:46;;;;;;;12.75;6.68;;;4.50;99.30;;;;;;6162241;23;20004;-92
2023/03/08 10:51:21;;;;;;;13.55;5.85;;;4.60;98.80;;;;;;6164796;23;20001;-92
2023/03/08 10:54:01;;;;;;;14.65;5.85;;;4.80;98.70;;;;;;6162560;23;20013;-91
2023/03/08 10:56:43;;;;;;;14.18;7.05;;;4.90;97.90;;;;;;6163081;23;20012;-92
2023/03/08 10:59:26;;;;;;;12.60;6.13;;;5.00;97.30;;;;;;6174958;23;20001;-92
2023/03/08 11:01:55;;;;;;;9.63;5.30;;;5.10;96.90;;;;;;6173407;23;20063;-92
2023/03/08 11:04:23;;;;;;;13.07;6.05;;;5.10;96.80;;;;;;6197203;23;20005;-92
2023/03/08 11:06:50;;;;;;;17.92;6.68;;;5.20;96.60;;;;;;6193977;23;19997;-93
2023/03/08 11:09:30;;;;;;;13.40;5.88;;;5.10;95.80;;;;;;6193867;23;20062;-92
2023/03/08 11:11:57;;;;;;;11.73;6.38;;;5.20;96.00;;;;;;6166808;23;20017;-91
2023/03/08 11:14:28;;;;;;;17.85;6.50;;;5.20;95.70;;;;;;6192885;23;20040;-92
2023/03/08 11:17:13;;;;;;;14.15;6.82;;;5.10;95.40;;;;;;6161510;23;20088;-91
2023/03/08 11:19:58;;;;;;;16.17;7.35;;;5.20;95.30;;;;;;6161969;23;20020;-90
2023/03/08 11:22:52;;;;;;;16.75;6.60;;;5.20;95.00;;;;;;6163406;23;20001;-89
2023/03/08 11:25:18;;;;;;;12.50;5.75;;;5.10;94.70;;;;;;6166438;23;20005;-90
2023/03/08 11:28:11;;;;;;;11.85;6.13;;;5.10;94.60;;;;;;6175780;23;20036;-91
2023/03/08 11:30:59;;;;;;;16.25;7.55;;;5.20;94.30;;;;;;6175052;23;20056;-90
2023/03/08 11:33:46;;;;;;;14.55;7.03;;;5.10;94.10;;;;;;6182139;23;20021;-89
2023/03/08 11:36:21;;;;;;;12.15;6.13;;;5.00;93.90;;;;;;6178362;23;20025;-92
2023/03/08 11:39:10;;;;;;;16.65;7.40;;;4.90;93.90;;;;;;6182796;23;20008;-92
2023/03/08 11:41:49;;;;;;;14.73;6.30;;;4.90;94.00;;;;;;6197895;23;20004;-92
2023/03/08 11:44:35;;;;;;;16.85;7.55;;;4.80;94.00;;;;;;6205963;23;20322;-91
2023/03/08 11:47:23;;;;;;;19.98;7.30;;;4.70;94.00;;;;;;6170557;23;20004;-88
2023/03/08 11:50:10;;;;;;;13.20;7.32;;;4.70;94.20;;;;;;6195930;23;20059;-91
2023/03/08 11:52:50;;;;;;;18.90;8.10;;;4.60;94.10;;;;;;6189132;23;20055;-92
2023/03/08 11:55:19;;;;;;;17.15;8.00;;;4.60;94.40;;;;;;6163103;23;20013;-90
2023/03/08 11:57:50;;;;;;;21.58;8.25;;;4.50;94.50;;;;;;6162096;23;20552;-91
2023/03/08 12:00:35;;;;;;;22.40;8.20;;;4.50;94.80;;;;;;6188713;23;20055;-91
2023/03/08 12:03:10;;;;;;;17.92;9.05;;;4.40;94.80;;;;;;6161909;23;20020;-91
2023/03/08 12:05:43;;;;;;;18.25;8.48;;;4.30;95.00;;;;;;6186871;23;20001;-91
2023/03/08 12:08:16;;;;;;;20.50;10.02;;;4.20;95.20;;;;;;6186431;23;20069;-91
2023/03/08 12:10:55;;;;;;;20.27;9.27;;;4.10;95.50;;;;;;6187117;23;20061;-91
2023/03/08 12:13:32;;;;;;;22.38;10.50;;;4.10;95.70;;;;;;6160699;23;20009;-91
2023/03/08 12:16:31;;;;;;;22.25;10.77;;;4.00;96.00;;;;;;6160581;23;20013;-91
2023/03/08 12:19:05;;;;;;;21.42;10.85;;;3.90;96.40;;;;;;6187271;23;19998;-91
2023/03/08 12:21:43;;;;;;;25.02;11.05;;;3.90;96.70;;;;;;6186473;23;20009;-89
2023/03/08 12:24:31;;;;;;;19.10;10.13;;;3.80;96.90;;;;;;6185415;23;20005;-91
2023/03/08 12:26:57;;;;;;;20.67;10.73;;;3.80;97.30;;;;;;6144957;23;20009;-91
2023/03/08 12:29:40;;;;;;;20.83;10.73;;;3.80;97.60;;;;;;6186670;23;20325;-88
2023/03/08 12:32:09;;;;;;;26.33;11.63;;;3.70;97.90;;;;;;6186758;23;20001;-91
2023/03/08 12:34:36;;;;;;;29.95;11.70;;;3.70;98.30;;;;;;6185627;23;20013;-91
2023/03/08 12:37:02;;;;;;;25.95;11.27;;;3.60;98.70;;;;;;6186220;23;20040;-91
2023/03/08 12:39:35;;;;;;;21.17;10.88;;;3.60;99.10;;;;;;6160444;23;20437;-89
2023/03/08 12:42:10;;;;;;;25.88;11.77;;;3.60;99.60;;;;;;6165705;23;20009;-92
2023/03/08 12:44:37;;;;;;;22.20;11.18;;;3.60;99.90;;;;;;6161628;23;20425;-92
2023/03/08 12:47:12;;;;;;;21.20;9.90;;;3.60;99.90;;;;;;6159599;23;20057;-91
2023/03/08 12:50:05;;;;;;;20.90;12.00;;;3.60;99.90;;;;;;6160923;23;20001;-93
2023/03/08 12:52:34;;;;;;;30.20;13.82;;;3.60;99.90;;;;;;6135033;23;20023;-92
2023/03/08 12:54:59;;;;;;;25.92;13.88;;;3.60;99.90;;;;;;6162165;23;20096;-92